Time;durP1;ratioP1;P1;durP2;ratioP2;P2;SDS_P1;SDS_P2;PMS_P1;PMS_P2;Temp;Humidity;BMP_temperature;BMP_pressure;BME280_temperature;BME280_humidity;BME280_pressure;Samples;Min_cycle;Max_cycle;Signal;HPM_P1;HPM_P2
2022/05/12 00:02:09;;;;;;;4.67;4.00;;;;;;;16.29;84.69;99342.06;5055131;28;20216;-83
2022/05/12 00:04:39;;;;;;;5.43;3.93;;;;;;;16.46;83.70;99362.97;5055562;28;20212;-82
2022/05/12 00:07:07;;;;;;;4.20;3.37;;;;;;;16.59;83.00;99384.16;5055649;28;20210;-82
2022/05/12 00:09:34;;;;;;;5.20;3.80;;;;;;;16.37;81.99;99437.28;5055299;28;20199;-83
2022/05/12 00:12:01;;;;;;;5.43;3.97;;;;;;;16.03;81.69;99465.56;5055784;28;20798;-82
2022/05/12 00:14:27;;;;;;;7.13;3.80;;;;;;;15.96;84.67;99408.09;5056762;28;20674;-82
2022/05/12 00:16:56;;;;;;;5.70;4.47;;;;;;;15.83;85.78;99416.69;5055084;28;20232;-83
2022/05/12 00:19:23;;;;;;;6.90;4.87;;;;;;;15.87;85.66;99409.47;5055278;28;20232;-83
2022/05/12 00:21:50;;;;;;;6.67;4.50;;;;;;;16.04;84.78;99405.88;5056075;28;20215;-83
2022/05/12 00:24:17;;;;;;;5.57;4.63;;;;;;;16.01;84.64;99419.19;5055520;28;20233;-83
2022/05/12 00:26:44;;;;;;;5.33;4.27;;;;;;;15.95;84.54;99428.28;5056391;28;20211;-84
2022/05/12 00:29:10;;;;;;;6.20;5.10;;;;;;;15.86;85.56;99416.53;5055586;28;20208;-83
2022/05/12 00:31:39;;;;;;;6.97;4.93;;;;;;;15.50;87.49;99395.75;5056575;28;20243;-82
2022/05/12 00:34:07;;;;;;;5.90;5.23;;;;;;;15.64;88.36;99372.16;5056378;28;20228;-83
2022/05/12 00:36:34;;;;;;;5.60;5.10;;;;;;;15.76;87.48;99372.41;5055723;28;20207;-82
2022/05/12 00:39:01;;;;;;;6.37;4.80;;;;;;;15.92;86.98;99389.00;5055181;28;20211;-82
2022/05/12 00:41:28;;;;;;;4.73;4.10;;;;;;;15.95;86.48;99396.72;5055888;28;20359;-84
2022/05/12 00:43:58;;;;;;;5.83;4.93;;;;;;;16.13;86.45;99417.66;5055689;28;20306;-83
2022/05/12 00:46:26;;;;;;;6.50;4.97;;;;;;;16.19;85.13;99465.50;5055814;28;20219;-81
2022/05/12 00:48:56;;;;;;;4.93;4.43;;;;;;;16.35;85.06;99485.69;5055179;28;20624;-84
2022/05/12 00:51:27;;;;;;;6.10;4.27;;;;;;;16.49;83.87;99493.66;5055745;28;20204;-83
2022/05/12 00:53:58;;;;;;;6.07;4.23;;;;;;;16.61;84.45;99498.22;5055916;28;20240;-83
2022/05/12 00:56:25;;;;;;;5.30;4.90;;;;;;;16.64;83.67;99513.81;5055848;28;20250;-83
2022/05/12 00:58:58;;;;;;;5.83;4.37;;;;;;;16.70;83.21;99528.44;5054710;28;20230;-83
2022/05/12 01:01:24;;;;;;;7.53;4.40;;;;;;;16.76;82.31;99535.13;5055960;28;20212;-83
2022/05/12 01:03:51;;;;;;;5.70;4.60;;;;;;;16.74;82.45;99558.94;5055020;28;20228;-83
2022/05/12 01:06:17;;;;;;;5.83;4.90;;;;;;;16.56;82.31;99550.31;5055754;28;20226;-82
2022/05/12 01:08:45;;;;;;;5.67;4.40;;;;;;;15.71;83.57;99543.66;5057805;28;20208;-82
2022/05/12 01:11:14;;;;;;;5.27;4.37;;;;;;;15.97;83.78;99507.19;5060665;28;20618;-83
2022/05/12 01:13:41;;;;;;;4.90;4.50;;;;;;;15.13;86.46;99484.53;5056124;28;20298;-83
2022/05/12 01:16:09;;;;;;;6.97;4.47;;;;;;;15.47;86.63;99425.69;5055635;28;20648;-84
2022/05/12 01:18:40;;;;;;;6.67;4.27;;;;;;;15.70;85.72;99455.13;5056003;28;20665;-83
2022/05/12 01:21:08;;;;;;;4.30;3.83;;;;;;;15.82;85.42;99465.00;5055314;28;20228;-83
2022/05/12 01:23:38;;;;;;;6.00;3.77;;;;;;;15.87;84.69;99493.69;5055619;28;20706;-83
2022/05/12 01:26:06;;;;;;;4.53;3.50;;;;;;;15.94;83.88;99518.72;5055819;28;20213;-83
2022/05/12 01:28:33;;;;;;;4.63;3.37;;;;;;;15.95;83.00;99538.84;5055795;28;20209;-82
2022/05/12 01:31:01;;;;;;;3.37;2.90;;;;;;;15.49;83.95;99550.06;5055900;28;20203;-84
2022/05/12 01:33:27;;;;;;;3.60;2.90;;;;;;;15.49;84.05;99547.44;5055835;28;20680;-81
2022/05/12 01:35:54;;;;;;;3.53;2.53;;;;;;;15.33;84.88;99537.84;5055448;28;20214;-84
2022/05/12 01:38:21;;;;;;;3.50;2.60;;;;;;;15.12;85.25;99526.66;5056043;28;20219;-84
2022/05/12 01:40:49;;;;;;;4.60;2.80;;;;;;;15.00;85.22;99525.50;5055708;28;20249;-85
2022/05/12 01:43:17;;;;;;;4.57;2.80;;;;;;;15.12;85.70;99516.16;5058074;28;20263;-83
2022/05/12 01:45:44;;;;;;;2.93;2.47;;;;;;;14.77;87.12;99510.94;5061835;28;20211;-84
2022/05/12 01:48:13;;;;;;;5.77;3.40;;;;;;;14.76;87.91;99454.91;5069889;28;20207;-80
2022/05/12 01:50:41;;;;;;;4.30;2.90;;;;;;;14.81;88.10;99447.66;5069158;28;20271;-81
2022/05/12 01:53:09;;;;;;;3.50;2.63;;;;;;;14.77;87.70;99474.19;5068317;28;20235;-81
2022/05/12 01:55:36;;;;;;;3.40;2.90;;;;;;;14.84;87.24;99488.66;5063263;28;20203;-81
2022/05/12 01:58:04;;;;;;;4.47;2.60;;;;;;;14.81;86.79;99507.25;5056136;28;20204;-82
2022/05/12 02:00:32;;;;;;;2.97;2.67;;;;;;;14.97;86.42;99529.16;5053681;28;20256;-82
2022/05/12 02:03:00;;;;;;;3.40;3.00;;;;;;;14.74;86.29;99547.88;5053152;28;20232;-82
2022/05/12 02:05:27;;;;;;;3.13;2.57;;;;;;;14.82;86.70;99532.56;5051977;28;20210;-80
2022/05/12 02:07:53;;;;;;;2.40;2.20;;;;;;;14.99;85.90;99550.13;5051958;28;20202;-81
2022/05/12 02:10:26;;;;;;;3.27;2.80;;;;;;;14.93;85.91;99564.41;5050164;28;20199;-84
2022/05/12 02:12:53;;;;;;;4.87;2.97;;;;;;;14.94;86.02;99570.50;5045036;28;20234;-81
2022/05/12 02:15:21;;;;;;;2.70;2.20;;;;;;;14.86;85.34;99597.16;5052294;28;20256;-81
2022/05/12 02:17:49;;;;;;;4.10;2.47;;;;;;;14.76;84.70;99616.94;5051958;28;20203;-80
2022/05/12 02:20:17;;;;;;;3.70;2.50;;;;;;;14.65;85.42;99623.59;5050385;28;20268;-80
2022/05/12 02:22:43;;;;;;;3.57;2.53;;;;;;;14.46;85.87;99610.47;5055490;28;20635;-81
2022/05/12 02:25:11;;;;;;;3.83;3.10;;;;;;;14.39;87.07;99587.19;5055722;28;20206;-81
2022/05/12 02:27:42;;;;;;;4.40;2.80;;;;;;;14.19;88.70;99565.41;5055867;28;20643;-81
2022/05/12 02:30:10;;;;;;;6.47;3.57;;;;;;;14.27;89.28;99549.25;5055326;28;20280;-81
2022/05/12 02:32:38;;;;;;;3.03;2.73;;;;;;;13.99;88.42;99565.47;5055529;28;20225;-80
2022/05/12 02:35:05;;;;;;;4.23;2.87;;;;;;;13.99;87.70;99608.31;5056013;28;20255;-79
2022/05/12 02:37:32;;;;;;;3.60;2.20;;;;;;;13.83;81.71;99739.31;5055567;28;20918;-83
2022/05/12 02:39:58;;;;;;;1.97;1.37;;;;;;;13.79;79.49;99861.03;5055044;28;20223;-81
2022/05/12 02:42:25;;;;;;;1.70;1.10;;;;;;;13.48;76.67;99958.47;5055259;28;20692;-81
2022/05/12 02:44:51;;;;;;;1.47;1.00;;;;;;;13.34;75.70;100000.06;5055305;28;20209;-81
2022/05/12 02:47:19;;;;;;;1.00;1.00;;;;;;;13.18;75.83;100036.44;5055575;28;20206;-82
2022/05/12 02:49:47;;;;;;;1.57;0.60;;;;;;;13.02;75.70;100029.16;5055407;28;20230;-84
2022/05/12 02:52:13;;;;;;;3.07;0.90;;;;;;;13.04;75.27;100036.94;5054665;28;20205;-81
2022/05/12 02:54:39;;;;;;;2.90;1.00;;;;;;;12.83;76.05;100013.22;5055709;28;20205;-83
2022/05/12 02:57:06;;;;;;;1.20;0.70;;;;;;;12.65;76.99;100013.88;5054455;28;20730;-83
2022/05/12 02:59:33;;;;;;;2.17;1.10;;;;;;;12.49;76.89;99993.44;5054753;28;20240;-83
2022/05/12 03:01:59;;;;;;;1.60;0.70;;;;;;;12.62;75.23;100067.19;5055156;28;20214;-81
2022/05/12 03:04:26;;;;;;;1.13;0.80;;;;;;;12.37;75.63;100063.66;5055540;28;20580;-81
2022/05/12 03:06:53;;;;;;;3.03;0.90;;;;;;;12.09;77.61;100020.94;5055602;28;20209;-81
2022/05/12 03:09:20;;;;;;;1.37;0.70;;;;;;;12.09;77.27;100005.25;5054780;28;20237;-81
2022/05/12 03:11:46;;;;;;;1.00;0.80;;;;;;;12.01;78.03;100003.75;5054374;28;20254;-80
2022/05/12 03:14:13;;;;;;;2.40;1.13;;;;;;;11.94;78.22;99990.03;5055071;28;20223;-80
2022/05/12 03:16:39;;;;;;;2.23;0.80;;;;;;;11.79;79.60;99962.56;5055238;28;20209;-83
2022/05/12 03:19:05;;;;;;;1.63;0.90;;;;;;;11.81;78.23;99981.66;5053432;28;20209;-82
2022/05/12 03:21:32;;;;;;;1.13;0.80;;;;;;;11.77;78.66;99995.75;5054863;28;20278;-81
2022/05/12 03:23:59;;;;;;;1.50;0.87;;;;;;;11.74;78.94;100006.31;5055412;28;20275;-84
2022/05/12 03:26:26;;;;;;;1.77;1.00;;;;;;;11.70;79.21;99996.84;5055266;28;20205;-81
2022/05/12 03:28:52;;;;;;;0.93;0.70;;;;;;;11.61;79.56;99994.50;5055237;28;20579;-84
2022/05/12 03:31:19;;;;;;;2.73;0.93;;;;;;;11.54;79.23;99988.63;5054676;28;20248;-82
2022/05/12 03:33:47;;;;;;;1.23;0.73;;;;;;;11.46;79.42;99999.31;5047437;28;20256;-83
2022/05/12 03:36:15;;;;;;;1.50;0.73;;;;;;;11.51;77.89;100039.22;5055622;28;20205;-82
2022/05/12 03:38:42;;;;;;;2.70;1.10;;;;;;;11.44;76.79;100068.22;5055198;28;20682;-83
2022/05/12 03:41:09;;;;;;;1.43;1.00;;;;;;;11.49;77.92;100067.16;5055083;28;20236;-85
2022/05/12 03:46:19;;;;;;;1.97;0.90;;;;;;;11.25;79.82;100016.44;5055311;28;20295;-84
2022/05/12 03:48:46;;;;;;;1.33;0.90;;;;;;;11.28;78.92;100042.50;5054471;28;20260;-82
2022/05/12 03:51:13;;;;;;;3.27;1.00;;;;;;;11.27;79.95;100032.09;5054956;28;20619;-82
2022/05/12 03:53:40;;;;;;;0.83;0.70;;;;;;;11.18;80.59;100014.06;5054658;28;20240;-84
2022/05/12 03:56:07;;;;;;;2.03;0.80;;;;;;;11.29;79.86;100023.28;5055008;28;20209;-83
2022/05/12 03:58:36;;;;;;;1.00;0.90;;;;;;;11.13;80.62;100016.81;5055565;28;20833;-82
2022/05/12 04:01:05;;;;;;;1.97;0.70;;;;;;;11.15;79.47;100054.19;5054666;28;20218;-83
2022/05/12 04:03:31;;;;;;;2.10;1.00;;;;;;;11.20;79.64;100064.50;5055588;28;20810;-83
2022/05/12 04:06:01;;;;;;;1.10;0.83;;;;;;;11.17;80.23;100051.53;5055240;28;20259;-85
2022/05/12 04:08:29;;;;;;;0.93;0.80;;;;;;;11.19;80.54;100052.34;5055298;28;20265;-83
2022/05/12 04:10:55;;;;;;;1.53;0.90;;;;;;;11.29;81.01;100041.59;5054685;28;20212;-83
2022/05/12 04:13:21;;;;;;;2.10;0.80;;;;;;;11.36;80.86;100060.59;5052963;28;20229;-81
2022/05/12 04:15:49;;;;;;;2.73;1.07;;;;;;;11.21;79.87;100084.50;5049909;28;20193;-79
2022/05/12 04:18:15;;;;;;;1.43;0.80;;;;;;;11.31;79.46;100102.50;5044338;28;20206;-80
2022/05/12 04:20:42;;;;;;;1.53;0.90;;;;;;;11.19;80.41;100092.38;5043125;28;20224;-80
2022/05/12 04:23:09;;;;;;;1.63;1.20;;;;;;;11.30;80.52;100077.28;5045174;28;20229;-81
2022/05/12 04:25:36;;;;;;;2.47;1.00;;;;;;;11.20;81.12;100077.56;5044692;28;20255;-78
2022/05/12 04:28:03;;;;;;;1.97;0.90;;;;;;;11.39;80.79;100068.31;5043130;28;20205;-81
2022/05/12 04:30:31;;;;;;;2.90;0.80;;;;;;;11.36;80.96;100071.03;5045092;28;20615;-79
2022/05/12 04:35:09;;;;;;;2.73;0.80;;;;;;;11.43;80.51;100083.00;5047230;28;20221;-81
2022/05/12 04:35:44;;;;;;;0.93;0.90;;;;;;;11.45;79.98;100106.50;5042359;28;20201;-82
2022/05/12 04:38:11;;;;;;;2.50;0.80;;;;;;;11.26;80.08;100101.78;5044957;28;20205;-84
2022/05/12 04:40:37;;;;;;;2.47;1.10;;;;;;;11.27;81.19;100079.13;5044795;28;20319;-83
2022/05/12 04:43:04;;;;;;;1.10;0.90;;;;;;;11.30;81.77;100071.22;5049279;28;20228;-81
2022/05/12 04:45:32;;;;;;;1.60;0.97;;;;;;;11.20;82.06;100054.94;5043222;28;20206;-81
2022/05/12 04:48:00;;;;;;;2.00;0.93;;;;;;;11.13;82.97;100041.16;5043841;28;20250;-82
2022/05/12 04:50:29;;;;;;;1.07;0.93;;;;;;;11.21;82.50;100043.56;5044561;28;20193;-80
2022/05/12 04:52:56;;;;;;;2.27;0.93;;;;;;;11.11;82.92;100060.41;5043415;28;20279;-83
2022/05/12 04:55:23;;;;;;;1.40;0.90;;;;;;;11.07;82.63;100059.63;5042777;28;20652;-80
2022/05/12 04:57:53;;;;;;;1.47;0.83;;;;;;;11.22;82.21;100079.25;5045434;28;20255;-83
2022/05/12 05:00:23;;;;;;;0.83;0.70;;;;;;;11.17;81.93;100083.72;5044252;28;20206;-82
2022/05/12 05:02:49;;;;;;;0.97;0.70;;;;;;;11.34;81.88;100096.34;5046624;28;20223;-81
2022/05/12 05:05:17;;;;;;;3.93;0.83;;;;;;;11.32;80.80;100122.53;5044711;28;20201;-81
2022/05/12 05:07:44;;;;;;;1.07;0.70;;;;;;;11.31;80.99;100128.63;5042619;28;20667;-80
2022/05/12 05:10:12;;;;;;;1.13;0.70;;;;;;;11.44;80.22;100155.31;5045215;28;20261;-81
2022/05/12 05:12:39;;;;;;;1.43;0.73;;;;;;;11.50;79.99;100172.59;5049620;28;20225;-82
2022/05/12 05:15:06;;;;;;;1.80;0.63;;;;;;;11.52;79.00;100191.69;5045479;28;20231;-81
2022/05/12 05:17:35;;;;;;;0.77;0.77;;;;;;;11.67;78.77;100227.00;5043917;28;20202;-82
2022/05/12 05:20:03;;;;;;;1.87;1.00;;;;;;;11.76;78.79;100234.63;5045022;28;20255;-83
2022/05/12 05:22:32;;;;;;;1.17;0.80;;;;;;;11.80;77.90;100257.16;5045797;28;20234;-82
2022/05/12 05:24:59;;;;;;;1.47;0.77;;;;;;;11.68;78.15;100273.19;5044513;28;20198;-81
2022/05/12 05:27:25;;;;;;;1.80;0.60;;;;;;;11.61;79.21;100243.72;5044965;28;20247;-81
2022/05/12 05:29:52;;;;;;;1.27;0.70;;;;;;;11.71;79.26;100228.63;5043333;28;20195;-82
2022/05/12 05:32:20;;;;;;;1.10;0.70;;;;;;;11.77;78.03;100248.53;5046083;28;20267;-81
2022/05/12 05:34:47;;;;;;;1.60;1.03;;;;;;;11.65;78.64;100252.34;5050129;28;20197;-82
2022/05/12 05:37:14;;;;;;;1.87;1.20;;;;;;;11.66;78.04;100264.53;5045087;28;20207;-82
2022/05/12 05:39:41;;;;;;;0.67;0.67;;;;;;;11.76;78.46;100258.16;5043668;28;20197;-82
2022/05/12 05:42:11;;;;;;;2.50;0.67;;;;;;;11.88;78.44;100257.81;5044054;28;20241;-83
2022/05/12 05:44:37;;;;;;;0.70;0.70;;;;;;;11.95;78.41;100276.84;5045107;28;20688;-83
2022/05/12 05:47:04;;;;;;;3.50;0.77;;;;;;;11.87;78.38;100279.66;5046196;28;20236;-82
2022/05/12 05:49:31;;;;;;;0.93;0.80;;;;;;;11.90;78.65;100276.97;5044283;28;20230;-82
2022/05/12 05:54:24;;;;;;;0.80;0.73;;;;;;;11.94;77.60;100308.28;5067928;22;20240;-76
2022/05/12 05:56:51;;;;;;;0.97;0.77;;;;;;;11.74;76.52;100348.84;5064429;28;20690;-77
2022/05/12 05:59:18;;;;;;;1.43;1.33;;;;;;;11.97;76.42;100350.03;5064637;28;20269;-76
2022/05/12 06:01:44;;;;;;;2.13;0.90;;;;;;;12.05;76.33;100362.03;5065935;28;20228;-76
2022/05/12 06:04:11;;;;;;;1.07;0.70;;;;;;;12.05;76.54;100362.03;5061692;28;20579;-76
2022/05/12 06:06:37;;;;;;;2.43;1.23;;;;;;;12.10;76.64;100347.06;5057479;28;20244;-76
2022/05/12 06:09:04;;;;;;;1.50;0.90;;;;;;;12.02;76.05;100380.41;5054778;28;20196;-76
2022/05/12 06:11:30;;;;;;;1.30;0.90;;;;;;;12.01;76.21;100388.31;5054625;28;20709;-77
2022/05/12 06:13:58;;;;;;;2.60;0.83;;;;;;;12.02;75.38;100401.34;5054782;28;20720;-77
2022/05/12 06:16:24;;;;;;;0.83;0.70;;;;;;;12.19;75.93;100408.78;5054532;28;20215;-76
2022/05/12 06:18:51;;;;;;;5.00;2.50;;;;;;;12.29;76.59;100394.53;5054750;28;20217;-77
2022/05/12 06:21:17;;;;;;;2.50;1.00;;;;;;;12.14;75.67;100415.88;5056296;28;20718;-77
2022/05/12 06:23:45;;;;;;;1.67;0.93;;;;;;;12.15;75.37;100422.84;5065573;28;20704;-77
2022/05/12 06:26:14;;;;;;;3.03;1.13;;;;;;;12.15;75.22;100429.81;5065488;28;20214;-76
2022/05/12 06:28:42;;;;;;;2.00;1.10;;;;;;;12.15;75.14;100435.03;5065161;28;20196;-76
2022/05/12 06:31:10;;;;;;;1.63;1.20;;;;;;;12.24;75.05;100437.44;5060457;28;20208;-76
2022/05/12 06:33:36;;;;;;;1.23;1.00;;;;;;;12.21;74.36;100468.91;5054983;28;20212;-77
2022/05/12 06:36:04;;;;;;;1.00;0.90;;;;;;;12.21;75.54;100453.22;5055290;28;20201;-77
2022/05/12 06:38:31;;;;;;;2.20;0.97;;;;;;;12.37;75.66;100433.59;5054065;28;20213;-77
2022/05/12 06:40:57;;;;;;;1.90;1.20;;;;;;;12.31;74.00;100476.50;5057976;28;20212;-75
2022/05/12 06:43:24;;;;;;;1.30;1.10;;;;;;;12.46;75.44;100469.16;5057648;28;20267;-76
2022/05/12 06:45:50;;;;;;;2.30;1.10;;;;;;;12.42;74.61;100484.06;5062491;28;20198;-76
2022/05/12 06:48:18;;;;;;;1.47;1.30;;;;;;;12.52;74.24;100503.88;5053971;28;20205;-76
2022/05/12 06:50:45;;;;;;;1.83;1.10;;;;;;;12.49;74.78;100503.97;5053966;28;20746;-75
2022/05/12 06:53:12;;;;;;;2.30;1.30;;;;;;;12.64;74.94;100489.59;5056505;28;20645;-75
2022/05/12 06:55:38;;;;;;;1.87;1.40;;;;;;;12.78;74.19;100504.09;5057603;28;20204;-77
2022/05/12 06:58:05;;;;;;;1.70;1.13;;;;;;;12.69;73.48;100528.78;5074416;28;20277;-77
2022/05/12 07:00:32;;;;;;;2.37;1.40;;;;;;;12.60;73.76;100540.34;5073712;28;20208;-76
2022/05/12 07:02:58;;;;;;;2.10;1.60;;;;;;;12.67;72.44;100572.47;5073731;28;20227;-75
2022/05/12 07:05:27;;;;;;;2.43;1.50;;;;;;;12.76;72.53;100553.03;5074132;28;20255;-75
2022/05/12 07:07:54;;;;;;;1.63;1.20;;;;;;;12.58;71.37;100607.59;5073463;28;20201;-75
2022/05/12 07:10:24;;;;;;;2.40;1.73;;;;;;;12.57;72.59;100612.91;5075349;28;20212;-77
2022/05/12 07:12:51;;;;;;;1.53;1.40;;;;;;;12.76;72.15;100603.66;5083460;28;20228;-79
2022/05/12 07:15:18;;;;;;;3.27;1.47;;;;;;;12.81;72.72;100595.72;5081591;28;20214;-79
2022/05/12 07:17:45;;;;;;;2.13;1.47;;;;;;;13.02;72.88;100597.78;5082116;28;20205;-79
2022/05/12 07:28:29;;;;;;;3.07;1.57;;;;;;;13.33;71.35;100633.66;5061926;28;20267;-79
2022/05/12 07:31:01;;;;;;;1.63;1.20;;;;;;;13.54;71.10;100647.97;5057360;28;20753;-79
2022/05/12 07:33:28;;;;;;;5.23;1.43;;;;;;;13.46;69.15;100710.25;5055020;28;20222;-78
2022/05/12 07:35:55;;;;;;;3.30;1.20;;;;;;;13.60;69.45;100728.25;5054542;28;20202;-81
2022/05/12 07:38:23;;;;;;;2.93;1.37;;;;;;;13.60;69.09;100746.59;5054408;28;20221;-78
2022/05/12 07:40:49;;;;;;;2.10;1.53;;;;;;;13.82;68.91;100739.84;5073607;28;20205;-80
2022/05/12 07:43:16;;;;;;;2.13;1.10;;;;;;;13.60;68.12;100755.31;5074052;28;20279;-78
2022/05/12 07:45:42;;;;;;;1.53;1.00;;;;;;;13.44;70.20;100736.50;5074003;28;20215;-79
2022/05/12 07:48:09;;;;;;;2.80;1.67;;;;;;;13.43;70.57;100697.19;5073732;28;20255;-77
2022/05/12 07:50:35;;;;;;;3.57;1.50;;;;;;;13.50;69.42;100725.00;5073824;28;20200;-78
2022/05/12 07:53:02;;;;;;;1.60;1.40;;;;;;;13.64;70.12;100732.50;5073802;28;20229;-77
2022/05/12 07:55:30;;;;;;;4.40;1.10;;;;;;;13.76;69.37;100734.78;5074147;28;20262;-78
2022/05/12 07:57:56;;;;;;;2.07;1.00;;;;;;;13.97;69.46;100746.44;5073483;28;20206;-79
2022/05/12 08:00:23;;;;;;;4.53;1.40;;;;;;;13.95;67.96;100792.84;5081147;28;20606;-79
2022/05/12 08:02:50;;;;;;;1.37;1.23;;;;;;;13.98;68.54;100776.19;5084718;28;20233;-79
2022/05/12 08:05:16;;;;;;;3.07;1.43;;;;;;;14.05;68.21;100772.47;5081471;28;20211;-80
2022/05/12 08:07:44;;;;;;;2.93;1.20;;;;;;;13.99;66.51;100838.25;5072389;28;20613;-79
2022/05/12 08:10:11;;;;;;;3.20;1.37;;;;;;;13.87;67.00;100847.31;5071153;28;20205;-78
2022/05/12 08:12:39;;;;;;;4.80;1.77;;;;;;;14.04;67.93;100815.38;5075993;28;20224;-78
2022/05/12 08:15:07;;;;;;;2.27;1.27;;;;;;;14.02;66.84;100846.91;5077081;28;20685;-80
2022/05/12 08:17:33;;;;;;;2.33;1.40;;;;;;;14.21;66.92;100849.91;5076554;28;20248;-78
2022/05/12 08:20:00;;;;;;;2.47;1.40;;;;;;;14.01;66.30;100870.56;5075329;28;20209;-78
2022/05/12 08:22:26;;;;;;;2.93;1.27;;;;;;;14.07;66.31;100858.16;5071935;28;20716;-78
2022/05/12 08:24:52;;;;;;;1.77;1.33;;;;;;;14.26;66.96;100855.03;5072795;28;20259;-79
2022/05/12 08:27:20;;;;;;;2.77;1.03;;;;;;;14.14;64.73;100919.25;5073291;28;20202;-78
2022/05/12 08:29:47;;;;;;;3.03;1.40;;;;;;;14.46;65.09;100899.13;5073401;28;20552;-78
2022/05/12 08:32:14;;;;;;;1.87;1.23;;;;;;;14.64;64.46;100940.69;5073499;28;20775;-78
2022/05/12 08:34:40;;;;;;;3.23;1.10;;;;;;;14.83;64.81;100921.78;5073645;28;20254;-78
2022/05/12 08:37:08;;;;;;;3.53;1.20;;;;;;;14.85;62.33;100973.41;5057964;28;20659;-78
2022/05/12 08:39:35;;;;;;;2.87;1.10;;;;;;;14.84;62.92;100986.56;5071777;28;20284;-78
2022/05/12 08:42:08;;;;;;;2.70;0.90;;;;;;;14.96;62.16;101003.75;5072729;28;20785;-78
2022/05/12 08:44:39;;;;;;;1.23;1.13;;;;;;;14.93;61.19;101028.38;5073732;28;20216;-78
2022/05/12 08:47:12;;;;;;;1.77;1.20;;;;;;;14.74;62.97;101014.88;5073387;28;20832;-77
2022/05/12 08:49:42;;;;;;;1.87;1.10;;;;;;;15.00;62.41;100997.50;5073053;28;20206;-79
2022/05/12 08:52:14;;;;;;;4.03;1.10;;;;;;;14.75;61.71;101042.03;5073329;28;20230;-79
2022/05/12 08:54:45;;;;;;;1.63;1.10;;;;;;;14.83;61.76;101050.56;5073286;28;20237;-79
2022/05/12 08:57:26;;;;;;;0.90;0.90;;;;;;;14.60;60.27;101083.53;5072815;28;20670;-80
2022/05/12 08:59:53;;;;;;;1.93;1.00;;;;;;;14.88;61.81;101067.06;5072497;28;20205;-78
2022/05/12 09:02:29;;;;;;;1.83;1.13;;;;;;;15.01;60.59;101078.13;5072856;28;20230;-78
2022/05/12 09:05:02;;;;;;;1.87;0.93;;;;;;;15.01;59.77;101114.94;5073023;28;20213;-78
2022/05/12 09:07:32;;;;;;;2.20;0.80;;;;;;;14.87;59.94;101118.78;5056064;28;20206;-78
2022/05/12 09:10:09;;;;;;;0.80;0.70;;;;;;;14.86;61.17;101076.75;5072855;28;20191;-78
2022/05/12 09:12:42;;;;;;;0.60;0.60;;;;;;;15.04;59.48;101091.19;5073097;28;20216;-79
2022/05/12 09:15:12;;;;;;;3.97;1.07;;;;;;;15.09;57.41;101184.81;5071502;28;20191;-78
2022/05/12 09:17:45;;;;;;;2.23;1.00;;;;;;;15.14;58.73;101189.94;5072884;28;20258;-80
2022/05/12 09:20:13;;;;;;;1.33;0.80;;;;;;;15.02;58.04;101183.22;5072515;28;20534;-78
2022/05/12 09:22:42;;;;;;;1.83;0.97;;;;;;;14.77;59.94;101134.84;5073410;28;20283;-79
2022/05/12 09:25:10;;;;;;;0.70;0.70;;;;;;;14.65;59.34;101136.84;5073079;28;20215;-78
2022/05/12 09:27:39;;;;;;;1.17;0.70;;;;;;;14.78;58.58;101144.44;5074722;28;20208;-80
2022/05/12 09:30:11;;;;;;;1.30;0.80;;;;;;;14.95;57.27;101180.81;5075774;28;20208;-80
2022/05/12 09:32:40;;;;;;;1.57;0.70;;;;;;;15.16;57.57;101205.69;5075742;28;20220;-81
2022/05/12 09:35:24;;;;;;;1.47;0.70;;;;;;;15.01;54.80;101263.03;5075781;28;20655;-79
2022/05/12 09:37:52;;;;;;;2.40;0.77;;;;;;;15.24;54.36;101254.59;5060687;28;20198;-78
2022/05/12 09:40:34;;;;;;;1.40;1.13;;;;;;;15.29;53.86;101314.97;5063722;28;20206;-81
2022/05/12 09:43:03;;;;;;;2.40;0.80;;;;;;;15.49;54.71;101311.81;5075326;28;20238;-80
2022/05/12 09:45:32;;;;;;;1.20;0.60;;;;;;;15.66;54.36;101309.63;5076016;28;20218;-79
2022/05/12 09:48:17;;;;;;;1.57;0.67;;;;;;;15.80;54.28;101309.31;5062278;28;20657;-79
2022/05/12 09:50:44;;;;;;;1.27;0.83;;;;;;;16.01;54.98;101301.72;5079277;28;20566;-80
2022/05/12 09:53:13;;;;;;;1.47;0.80;;;;;;;15.80;53.37;101301.41;5076157;28;20231;-80
2022/05/12 09:55:42;;;;;;;1.10;0.70;;;;;;;15.96;54.81;101293.09;5073290;28;20208;-79
2022/05/12 09:58:29;;;;;;;1.43;0.90;;;;;;;15.97;54.25;101281.63;5074710;28;20318;-80
2022/05/12 10:01:12;;;;;;;0.90;0.60;;;;;;;16.06;53.93;101327.03;5057864;28;20210;-77
2022/05/12 10:09:16;;;;;;;1.27;0.60;;;;;;;16.03;51.33;101316.56;5069679;28;20185;-77
2022/05/12 10:11:48;;;;;;;1.63;0.70;;;;;;;16.03;50.72;101429.81;5052814;28;20631;-80
2022/05/12 10:14:24;;;;;;;1.63;0.70;;;;;;;16.14;51.81;101421.63;5052601;28;20200;-79
2022/05/12 10:16:53;;;;;;;0.93;0.70;;;;;;;16.14;51.91;101423.41;5053106;28;20253;-80
2022/05/12 10:19:23;;;;;;;2.23;0.80;;;;;;;15.92;53.29;101381.84;5067236;28;20206;-78
2022/05/12 10:21:56;;;;;;;1.13;0.70;;;;;;;15.89;52.60;101366.09;5066342;28;20219;-79
2022/05/12 10:24:29;;;;;;;1.83;0.83;;;;;;;16.13;53.62;101338.25;5071208;28;20720;-78
2022/05/12 10:27:00;;;;;;;2.40;0.87;;;;;;;15.94;53.31;101319.47;5072683;28;21039;-78
2022/05/12 10:29:41;;;;;;;0.93;0.70;;;;;;;15.93;53.15;101341.41;5072699;28;20243;-78
2022/05/12 10:32:13;;;;;;;3.50;1.07;;;;;;;15.98;50.52;101379.03;5072633;28;20791;-78
2022/05/12 10:34:51;;;;;;;1.17;0.83;;;;;;;15.66;50.77;101422.81;5075781;28;20203;-77
2022/05/12 10:37:34;;;;;;;1.00;0.80;;;;;;;16.06;51.23;101410.44;5073970;28;20198;-80
2022/05/12 10:40:14;;;;;;;0.93;0.70;;;;;;;16.53;50.26;101457.50;5079149;28;20206;-78
2022/05/12 10:42:51;;;;;;;1.97;1.03;;;;;;;16.71;50.78;101478.09;5065183;28;20236;-78
2022/05/12 10:45:24;;;;;;;2.23;0.90;;;;;;;16.77;50.17;101458.56;5075019;28;20580;-80
2022/05/12 10:48:06;;;;;;;1.23;0.70;;;;;;;16.75;47.21;101476.22;5078992;28;20582;-80
2022/05/12 10:50:39;;;;;;;2.33;0.73;;;;;;;16.90;47.27;101496.06;5067911;28;20259;-79
2022/05/12 10:53:13;;;;;;;1.53;1.03;;;;;;;17.06;47.86;101539.53;5059274;28;20250;-81
2022/05/12 10:55:45;;;;;;;1.23;0.80;;;;;;;17.00;45.79;101569.59;5058446;28;20254;-81
2022/05/12 10:58:26;;;;;;;2.10;0.80;;;;;;;17.07;47.79;101580.88;5059095;28;20195;-80
2022/05/12 11:01:09;;;;;;;1.80;0.77;;;;;;;17.28;44.58;101558.25;5056536;28;20250;-82
2022/05/12 11:03:41;;;;;;;1.13;0.63;;;;;;;17.41;46.61;101645.91;5057653;28;20285;-80
2022/05/12 11:06:14;;;;;;;2.57;0.93;;;;;;;17.51;47.10;101609.53;5058523;28;20193;-80
2022/05/12 11:08:46;;;;;;;1.90;0.70;;;;;;;17.78;45.95;101621.94;5058809;28;20207;-78
2022/05/12 11:11:17;;;;;;;1.17;0.63;;;;;;;17.16;47.26;101601.69;5058138;28;20212;-78
2022/05/12 11:13:50;;;;;;;1.43;0.60;;;;;;;17.24;46.68;101570.72;5056040;28;20212;-79
2022/05/12 11:16:19;;;;;;;1.80;0.90;;;;;;;17.10;46.77;101593.94;5056582;28;20208;-79
2022/05/12 11:18:52;;;;;;;1.43;1.00;;;;;;;16.65;47.04;101605.66;5055704;28;20269;-80
2022/05/12 11:21:25;;;;;;;2.13;0.90;;;;;;;17.07;47.90;101517.56;5063879;28;20200;-79
2022/05/12 11:24:10;;;;;;;0.97;0.67;;;;;;;17.24;45.70;101533.75;5056168;28;20619;-80
2022/05/12 11:26:50;;;;;;;1.67;0.70;;;;;;;17.89;47.40;101555.59;5055672;28;20254;-79
2022/05/12 11:29:44;;;;;;;2.07;0.70;;;;;;;18.70;44.22;101602.28;5057321;28;20201;-81
2022/05/12 11:32:34;;;;;;;1.97;0.70;;;;;;;18.78;39.47;101745.72;5071734;28;20307;-79
2022/05/12 11:35:05;;;;;;;1.17;0.70;;;;;;;19.30;38.88;101809.34;5084116;28;20196;-78
2022/05/12 11:37:36;;;;;;;1.30;0.90;;;;;;;19.25;39.01;101865.09;5077082;28;20200;-79
2022/05/12 11:40:08;;;;;;;0.60;0.60;;;;;;;19.79;38.63;101847.44;5070470;28;20224;-78
2022/05/12 11:45:42;;;;;;;1.63;0.70;;;;;;;20.13;38.01;101909.84;5081894;28;20649;-78
2022/05/12 11:48:34;;;;;;;1.30;0.80;;;;;;;20.02;37.70;101904.94;5080880;28;20561;-78
2022/05/12 11:51:12;;;;;;;0.80;0.80;;;;;;;19.53;38.25;101877.44;5088317;28;20185;-79
2022/05/12 11:53:56;;;;;;;0.90;0.67;;;;;;;20.27;38.21;101847.50;5085354;28;20215;-79
2022/05/12 11:56:44;;;;;;;3.10;1.23;;;;;;;19.86;39.65;101840.16;5079496;28;20212;-79
2022/05/12 11:59:24;;;;;;;0.90;0.70;;;;;;;21.14;37.97;101806.97;5078991;28;20220;-80